615VGS Twitter

615vgs 615 Boys (and wag!) good to go! http://t.co/yeznJBWKnx
615vgs @ReigateBeat @metpoliceuk @SurreyFRS @LondonFire @RoyalAirForceUK Many thanks for your support with our LIVEX. Much appreciated.
615vgs We're looking for a make-up artist to help us with a Post Crash Management Exercise we're holding at Kenley on... http://t.co/NRbt5U6Tfz
615vgs Slightly different from your average day at RAF Kenley... Many thanks to all staff and colleagues from partner agencies that attended.

615VGS Facebook

Staff Login


Staff who require login details should contact the MCO.

Join 615 VGS

 

 

615 VGS Partner

bigatmo

Course Photos 2013

KY Aviation Wx

[source: ADDS]
METAR
EGKB 231520Z 36010KT 8000 RA FEW005 BKN008 06/05 Q1016 =
TAF
TAF EGKB 231359Z 2315/2320 34009KT 6000 BKN007 TEMPO 2315/2318 3000 RA BKN003 PROB30 TEMPO 2315/2317 +RA BECMG 2318/2320 CAVOK =
SR / SS: 07:30 / 16:01 UTC (Sunrise/Sunset 2014-11-23)